Time;durP1;ratioP1;P1;durP2;ratioP2;P2;SDS_P1;SDS_P2;PMS_P1;PMS_P2;Temp;Humidity;BMP_temperature;BMP_pressure;BME280_temperature;BME280_humidity;BME280_pressure;Samples;Min_cycle;Max_cycle;Signal;HPM_P1;HPM_P2
2023/10/14 00:00:26;;;;;;;3.03;2.10;;;;;;;;;;5053489;28;20065;-60
2023/10/14 00:02:52;;;;;;;5.18;1.83;;;;;;;;;;5053792;28;20083;-60
2023/10/14 00:05:20;;;;;;;5.65;2.72;;;;;;;;;;5052771;28;20017;-59
2023/10/14 00:07:46;;;;;;;4.13;2.22;;;;;;;;;;5053484;28;20029;-60
2023/10/14 00:10:13;;;;;;;4.10;1.98;;;;;;;;;;5053812;28;20021;-59
2023/10/14 00:12:40;;;;;;;3.38;2.08;;;;;;;;;;5052591;28;20021;-60
2023/10/14 00:15:07;;;;;;;4.05;2.10;;;;;;;;;;5053324;28;20029;-60
2023/10/14 00:17:36;;;;;;;5.28;2.45;;;;;;;;;;5053580;28;20033;-60
2023/10/14 00:20:03;;;;;;;4.35;2.35;;;;;;;;;;5053359;28;20363;-59
2023/10/14 00:22:30;;;;;;;3.38;2.55;;;;;;;;;;5052454;28;20025;-59
2023/10/14 00:24:58;;;;;;;5.13;2.40;;;;;;;;;;5053301;28;20031;-59
2023/10/14 00:27:24;;;;;;;4.25;2.65;;;;;;;;;;5053276;28;20027;-59
2023/10/14 00:30:05;;;;;;;6.18;2.53;;;;;;;;;;5054606;28;20158;-59
2023/10/14 00:32:31;;;;;;;4.50;2.45;;;;;;;;;;5057198;28;20021;-59
2023/10/14 00:34:57;;;;;;;3.38;2.30;;;;;;;;;;5055834;28;20431;-59
2023/10/14 00:37:23;;;;;;;4.45;2.05;;;;;;;;;;5057363;28;20355;-59
2023/10/14 00:40:00;;;;;;;4.53;2.60;;;;;;;;;;5056107;28;20087;-59
2023/10/14 00:42:26;;;;;;;4.60;2.72;;;;;;;;;;5056649;28;20029;-59
2023/10/14 00:44:52;;;;;;;4.15;2.38;;;;;;;;;;5056882;28;20092;-59
2023/10/14 00:47:18;;;;;;;3.17;2.38;;;;;;;;;;5056368;28;20344;-59
2023/10/14 00:49:45;;;;;;;3.13;2.70;;;;;;;;;;5056375;28;20052;-59
2023/10/14 00:52:18;;;;;;;4.30;2.92;;;;;;;;;;5055888;28;20021;-59
2023/10/14 00:59:45;;;;;;;3.67;3.22;;;;;;;;;;5055794;28;20386;-59
2023/10/14 01:02:11;;;;;;;6.75;3.72;;;;;;;;;;5056037;28;20115;-59
2023/10/14 01:04:40;;;;;;;5.50;3.72;;;;;;;;;;5055770;28;20431;-59
2023/10/14 01:07:12;;;;;;;8.50;4.40;;;;;;;;;;5055621;28;20025;-59
2023/10/14 01:09:52;;;;;;;4.25;3.25;;;;;;;;;;5055599;28;20028;-59
2023/10/14 01:14:54;;;;;;;6.72;3.15;;;;;;;;;;5055582;28;20182;-59
2023/10/14 01:17:30;;;;;;;5.40;4.05;;;;;;;;;;5055857;28;20032;-59
2023/10/14 01:19:59;;;;;;;3.95;2.97;;;;;;;;;;5055966;28;20029;-59
2023/10/14 01:22:26;;;;;;;4.97;3.53;;;;;;;;;;5056104;28;20025;-59
2023/10/14 01:24:55;;;;;;;5.90;4.28;;;;;;;;;;5056145;28;20056;-59
2023/10/14 01:27:21;;;;;;;5.05;3.85;;;;;;;;;;5055243;28;20025;-59
2023/10/14 01:29:50;;;;;;;3.95;3.50;;;;;;;;;;5056107;28;20033;-59
2023/10/14 01:32:25;;;;;;;5.05;4.03;;;;;;;;;;5055705;28;20025;-59
2023/10/14 01:35:00;;;;;;;4.50;3.25;;;;;;;;;;5055589;28;20128;-59
2023/10/14 01:37:33;;;;;;;5.90;4.00;;;;;;;;;;5055408;28;20352;-60
2023/10/14 01:40:07;;;;;;;5.45;3.78;;;;;;;;;;5055594;28;20029;-59
2023/10/14 01:42:33;;;;;;;6.28;4.28;;;;;;;;;;5054153;28;20039;-59
2023/10/14 01:44:59;;;;;;;4.97;3.92;;;;;;;;;;5054969;28;20055;-59
2023/10/14 01:47:32;;;;;;;4.03;3.42;;;;;;;;;;5055429;28;20052;-59
2023/10/14 01:50:00;;;;;;;6.57;4.03;;;;;;;;;;5054892;28;20033;-59
2023/10/14 01:52:26;;;;;;;6.80;4.35;;;;;;;;;;5054804;28;20032;-59
2023/10/14 01:54:52;;;;;;;6.07;3.67;;;;;;;;;;5054769;28;20013;-59
2023/10/14 01:57:18;;;;;;;4.80;3.75;;;;;;;;;;5054715;28;20025;-59
2023/10/14 01:59:46;;;;;;;4.22;3.33;;;;;;;;;;5054733;28;20459;-59
2023/10/14 02:02:19;;;;;;;4.28;3.35;;;;;;;;;;5054664;28;20021;-59
2023/10/14 02:04:46;;;;;;;5.03;3.50;;;;;;;;;;5055416;28;20028;-59
2023/10/14 02:07:18;;;;;;;5.85;4.05;;;;;;;;;;5055265;28;20095;-59
2023/10/14 02:09:44;;;;;;;5.82;3.55;;;;;;;;;;5055070;28;20028;-59
2023/10/14 02:12:11;;;;;;;5.50;3.83;;;;;;;;;;5054489;28;20029;-59
2023/10/14 02:14:40;;;;;;;4.38;3.55;;;;;;;;;;5054375;28;20033;-59
2023/10/14 02:17:06;;;;;;;4.28;3.88;;;;;;;;;;5054806;28;20021;-59
2023/10/14 02:19:38;;;;;;;5.60;4.40;;;;;;;;;;5054783;28;20040;-59
2023/10/14 02:22:10;;;;;;;8.48;4.40;;;;;;;;;;5054264;28;20100;-59
2023/10/14 02:24:36;;;;;;;5.85;4.45;;;;;;;;;;5054767;28;20021;-59
2023/10/14 02:27:12;;;;;;;5.82;4.03;;;;;;;;;;5054689;28;20078;-59
2023/10/14 02:29:47;;;;;;;4.47;3.55;;;;;;;;;;5054737;28;20025;-59
2023/10/14 02:32:15;;;;;;;4.70;3.60;;;;;;;;;;5054410;28;20167;-59
2023/10/14 02:34:44;;;;;;;3.97;3.55;;;;;;;;;;5053846;28;20053;-59
2023/10/14 02:37:13;;;;;;;5.77;3.90;;;;;;;;;;5053963;28;20593;-59
2023/10/14 02:39:42;;;;;;;4.93;3.80;;;;;;;;;;5054410;28;20083;-59
2023/10/14 02:42:09;;;;;;;5.05;3.80;;;;;;;;;;5054694;28;20013;-59
2023/10/14 02:44:51;;;;;;;6.57;4.00;;;;;;;;;;5054057;28;20041;-59
2023/10/14 02:47:19;;;;;;;7.28;4.10;;;;;;;;;;5054432;28;20100;-59
2023/10/14 02:49:53;;;;;;;4.55;4.05;;;;;;;;;;5054311;28;20111;-59
2023/10/14 02:52:19;;;;;;;4.45;3.72;;;;;;;;;;5053968;28;20029;-59
2023/10/14 02:55:10;;;;;;;8.40;3.97;;;;;;;;;;5054203;28;20455;-59
2023/10/14 02:57:36;;;;;;;6.70;3.90;;;;;;;;;;5054196;28;20370;-59
2023/10/14 03:00:02;;;;;;;5.30;4.63;;;;;;;;;;5054117;28;20111;-59
2023/10/14 03:02:48;;;;;;;5.60;4.18;;;;;;;;;;5053640;28;20417;-59
2023/10/14 03:05:32;;;;;;;3.85;3.45;;;;;;;;;;5053580;28;20025;-59
2023/10/14 03:08:06;;;;;;;5.93;4.00;;;;;;;;;;5053542;28;20501;-59
2023/10/14 03:10:35;;;;;;;4.97;4.10;;;;;;;;;;5054132;28;20033;-59
2023/10/14 03:13:02;;;;;;;7.30;4.40;;;;;;;;;;5053411;28;20017;-59
2023/10/14 03:15:30;;;;;;;5.55;4.50;;;;;;;;;;5054231;28;20386;-59
2023/10/14 03:18:01;;;;;;;5.97;4.18;;;;;;;;;;5053318;28;20032;-59
2023/10/14 03:23:09;;;;;;;5.50;4.47;;;;;;;;;;5053113;28;20030;-59
2023/10/14 03:25:35;;;;;;;;;;;;;;;;;;5054361;28;20044;-59
2023/10/14 03:28:12;;;;;;;5.82;4.03;;;;;;;;;;5054174;28;19920;-59
2023/10/14 03:30:44;;;;;;;4.82;3.70;;;;;;;;;;5053938;28;20050;-59
2023/10/14 03:33:10;;;;;;;5.47;4.60;;;;;;;;;;5053834;28;20104;-59
2023/10/14 03:35:43;;;;;;;7.32;4.95;;;;;;;;;;5053864;28;20060;-59
2023/10/14 03:38:25;;;;;;;4.95;3.67;;;;;;;;;;5053415;28;20033;-59
2023/10/14 03:41:03;;;;;;;4.90;3.92;;;;;;;;;;5053537;28;20032;-59
2023/10/14 03:43:30;;;;;;;6.00;4.50;;;;;;;;;;5053686;28;20383;-59
2023/10/14 03:46:11;;;;;;;5.00;3.45;;;;;;;;;;5053208;28;20032;-59
2023/10/14 03:48:45;;;;;;;4.93;4.20;;;;;;;;;;5053423;28;20036;-59
2023/10/14 03:51:11;;;;;;;5.15;3.50;;;;;;;;;;5053679;28;20044;-59
2023/10/14 03:53:38;;;;;;;6.47;4.03;;;;;;;;;;5053086;28;20447;-59
2023/10/14 03:56:04;;;;;;;4.30;3.67;;;;;;;;;;5053580;28;20494;-59
2023/10/14 03:58:33;;;;;;;4.95;3.47;;;;;;;;;;5053269;28;20025;-59
2023/10/14 04:01:02;;;;;;;3.53;2.80;;;;;;;;;;5053268;28;20033;-59
2023/10/14 04:03:40;;;;;;;5.65;4.20;;;;;;;;;;5053004;28;20119;-59
2023/10/14 04:06:09;;;;;;;5.22;3.95;;;;;;;;;;5056020;28;20467;-59
2023/10/14 04:08:47;;;;;;;6.57;4.32;;;;;;;;;;5056645;28;20041;-59
2023/10/14 04:11:14;;;;;;;5.72;4.47;;;;;;;;;;5056937;28;20479;-59
2023/10/14 04:13:52;;;;;;;5.10;4.60;;;;;;;;;;5056720;28;20032;-59
2023/10/14 04:16:27;;;;;;;8.07;4.40;;;;;;;;;;5057454;28;20051;-59
2023/10/14 04:18:59;;;;;;;5.43;4.85;;;;;;;;;;5057353;28;20060;-59
2023/10/14 04:21:26;;;;;;;6.65;3.83;;;;;;;;;;5057120;28;20418;-59
2023/10/14 04:24:19;;;;;;;6.80;4.43;;;;;;;;;;5057335;28;20086;-59
2023/10/14 04:26:48;;;;;;;9.65;4.78;;;;;;;;;;5057041;28;20067;-59
2023/10/14 04:29:34;;;;;;;6.35;4.45;;;;;;;;;;5056875;28;20356;-59
2023/10/14 04:32:11;;;;;;;6.22;4.63;;;;;;;;;;5056922;28;20403;-59
2023/10/14 04:34:39;;;;;;;9.30;4.82;;;;;;;;;;5057128;28;20069;-59
2023/10/14 04:37:08;;;;;;;5.97;4.03;;;;;;;;;;5056525;28;20087;-59
2023/10/14 04:39:42;;;;;;;8.82;4.22;;;;;;;;;;5056142;28;20017;-59
2023/10/14 04:44:59;;;;;;;4.25;3.67;;;;;;;;;;5056212;28;20029;-59
2023/10/14 04:47:37;;;;;;;5.75;4.32;;;;;;;;;;5056076;28;20067;-59
2023/10/14 04:50:13;;;;;;;8.18;4.38;;;;;;;;;;5057116;28;20124;-59
2023/10/14 04:52:41;;;;;;;10.93;4.38;;;;;;;;;;5056786;28;20045;-59
2023/10/14 04:55:19;;;;;;;4.57;3.45;;;;;;;;;;5055631;28;20478;-59
2023/10/14 04:57:51;;;;;;;6.50;3.58;;;;;;;;;;5056184;28;20151;-59
2023/10/14 05:00:31;;;;;;;9.57;3.90;;;;;;;;;;5055686;28;20033;-59
2023/10/14 05:02:59;;;;;;;5.88;3.80;;;;;;;;;;5056746;28;20025;-59
2023/10/14 05:05:30;;;;;;;10.77;4.03;;;;;;;;;;5055524;28;20522;-59
2023/10/14 05:07:58;;;;;;;5.28;4.03;;;;;;;;;;5056350;28;20072;-59
2023/10/14 05:10:26;;;;;;;6.22;4.07;;;;;;;;;;5056290;28;20029;-59
2023/10/14 05:12:52;;;;;;;4.47;3.30;;;;;;;;;;5055870;28;20483;-59
2023/10/14 05:15:21;;;;;;;6.65;3.60;;;;;;;;;;5055250;28;20060;-59
2023/10/14 05:17:50;;;;;;;4.00;3.30;;;;;;;;;;5054778;28;20087;-59
2023/10/14 05:20:23;;;;;;;4.35;3.13;;;;;;;;;;5056016;28;20117;-59
2023/10/14 05:22:52;;;;;;;5.68;3.33;;;;;;;;;;5056258;28;20041;-59
2023/10/14 05:25:27;;;;;;;4.72;3.28;;;;;;;;;;5055475;28;20092;-59
2023/10/14 05:27:56;;;;;;;6.15;3.75;;;;;;;;;;5055671;28;20053;-59
2023/10/14 05:30:23;;;;;;;4.38;3.22;;;;;;;;;;5055330;28;20029;-59
2023/10/14 05:32:51;;;;;;;7.55;4.20;;;;;;;;;;5055317;28;20391;-59
2023/10/14 05:35:17;;;;;;;6.45;3.65;;;;;;;;;;5055719;28;20071;-59
2023/10/14 05:37:43;;;;;;;7.75;3.55;;;;;;;;;;5055235;28;20029;-59
2023/10/14 05:40:13;;;;;;;7.30;2.67;;;;;;;;;;5055691;28;20025;-59
2023/10/14 05:42:45;;;;;;;5.68;3.70;;;;;;;;;;5055087;28;20025;-59
2023/10/14 05:45:12;;;;;;;6.70;3.60;;;;;;;;;;5055379;28;20033;-59
2023/10/14 05:47:39;;;;;;;4.47;3.10;;;;;;;;;;5055100;28;20025;-59
2023/10/14 05:50:14;;;;;;;9.05;3.30;;;;;;;;;;5055508;28;20025;-59
2023/10/14 05:52:41;;;;;;;4.50;3.28;;;;;;;;;;5054901;28;20029;-59
2023/10/14 05:55:09;;;;;;;6.95;3.88;;;;;;;;;;5055349;28;20067;-59
2023/10/14 05:57:39;;;;;;;4.00;3.00;;;;;;;;;;5054747;28;20382;-59
2023/10/14 06:00:20;;;;;;;6.70;3.35;;;;;;;;;;5055091;28;20083;-59
2023/10/14 06:02:47;;;;;;;6.38;3.05;;;;;;;;;;5054953;28;20029;-59
2023/10/14 06:05:16;;;;;;;3.88;3.20;;;;;;;;;;5054624;28;20421;-59
2023/10/14 06:07:46;;;;;;;4.35;3.08;;;;;;;;;;5054675;28;20021;-59
2023/10/14 06:10:12;;;;;;;6.20;3.30;;;;;;;;;;5055173;28;20075;-59
2023/10/14 06:12:38;;;;;;;6.03;3.95;;;;;;;;;;5054594;28;20052;-59
2023/10/14 06:15:09;;;;;;;4.80;3.33;;;;;;;;;;5054207;28;20025;-59
2023/10/14 06:17:38;;;;;;;4.95;3.05;;;;;;;;;;5054708;28;20029;-59
2023/10/14 06:20:05;;;;;;;3.67;3.13;;;;;;;;;;5054809;28;20072;-59
2023/10/14 06:22:31;;;;;;;4.72;3.20;;;;;;;;;;5054103;28;20474;-59
2023/10/14 06:24:57;;;;;;;4.95;3.42;;;;;;;;;;5054369;28;20036;-59
2023/10/14 06:27:22;;;;;;;6.60;3.13;;;;;;;;;;5053912;28;20025;-60
2023/10/14 06:29:48;;;;;;;5.30;3.75;;;;;;;;;;5054325;28;20032;-59
2023/10/14 06:32:14;;;;;;;4.78;3.40;;;;;;;;;;5054893;28;20017;-60
2023/10/14 06:34:40;;;;;;;4.80;3.13;;;;;;;;;;5054221;28;20087;-59
2023/10/14 06:37:07;;;;;;;5.15;3.28;;;;;;;;;;5054862;28;20127;-60
2023/10/14 06:39:39;;;;;;;9.00;3.42;;;;;;;;;;5054531;28;20036;-59
2023/10/14 06:42:05;;;;;;;4.53;2.83;;;;;;;;;;5054832;28;20055;-59
2023/10/14 06:44:32;;;;;;;4.68;3.42;;;;;;;;;;5053670;28;20467;-59
2023/10/14 06:46:58;;;;;;;6.75;4.07;;;;;;;;;;5053906;28;20033;-59
2023/10/14 06:49:32;;;;;;;6.05;3.13;;;;;;;;;;5054414;28;20025;-59
2023/10/14 06:51:58;;;;;;;5.38;4.03;;;;;;;;;;5054419;28;20025;-60
2023/10/14 06:54:30;;;;;;;4.07;3.47;;;;;;;;;;5053846;28;20378;-59
2023/10/14 06:56:56;;;;;;;5.85;3.88;;;;;;;;;;5054281;28;20087;-60
2023/10/14 06:59:22;;;;;;;9.75;3.28;;;;;;;;;;5054088;28;20032;-59
2023/10/14 07:01:48;;;;;;;6.85;3.47;;;;;;;;;;5053608;28;20079;-59
2023/10/14 07:04:16;;;;;;;6.78;4.00;;;;;;;;;;5053629;28;20517;-59
2023/10/14 07:06:47;;;;;;;4.68;3.55;;;;;;;;;;5053523;28;20119;-59
2023/10/14 07:09:23;;;;;;;5.13;3.28;;;;;;;;;;5053389;28;20497;-59
2023/10/14 07:11:48;;;;;;;8.07;3.50;;;;;;;;;;5053886;28;20021;-59
2023/10/14 07:14:15;;;;;;;4.72;3.65;;;;;;;;;;5053663;28;20112;-59
2023/10/14 07:16:40;;;;;;;4.75;3.45;;;;;;;;;;5053460;28;20025;-59
2023/10/14 07:19:07;;;;;;;6.10;3.88;;;;;;;;;;5053725;28;20383;-59
2023/10/14 07:21:33;;;;;;;4.90;3.22;;;;;;;;;;5053199;28;20033;-59
2023/10/14 07:24:05;;;;;;;5.97;3.50;;;;;;;;;;5053980;28;20028;-59
2023/10/14 07:26:36;;;;;;;6.13;3.72;;;;;;;;;;5054024;28;20079;-59
2023/10/14 07:29:02;;;;;;;6.90;3.55;;;;;;;;;;5053828;28;20044;-60
2023/10/14 07:31:31;;;;;;;5.18;3.92;;;;;;;;;;5053579;28;20116;-60
2023/10/14 07:34:03;;;;;;;4.20;3.53;;;;;;;;;;5053770;28;20021;-60
2023/10/14 07:36:29;;;;;;;5.28;3.75;;;;;;;;;;5053406;28;20029;-59
2023/10/14 07:39:56;;;;;;;4.45;3.25;;;;;;;;;;5053246;28;20370;-59
2023/10/14 07:41:52;;;;;;;4.78;3.40;;;;;;;;;;5053166;28;20040;-60
2023/10/14 07:44:18;;;;;;;7.45;3.83;;;;;;;;;;5057265;28;20032;-59
2023/10/14 07:46:44;;;;;;;5.40;3.55;;;;;;;;;;5057501;28;20147;-59
2023/10/14 07:49:10;;;;;;;5.20;3.47;;;;;;;;;;5057785;28;20466;-59
2023/10/14 07:51:36;;;;;;;7.75;3.80;;;;;;;;;;5057794;28;20075;-59
2023/10/14 07:54:02;;;;;;;7.50;3.47;;;;;;;;;;5057598;28;20430;-60
2023/10/14 07:56:28;;;;;;;5.45;3.75;;;;;;;;;;5057104;28;20108;-59
2023/10/14 07:58:55;;;;;;;5.72;3.28;;;;;;;;;;5056926;28;20120;-59
2023/10/14 08:01:23;;;;;;;5.25;3.28;;;;;;;;;;5057463;28;20029;-59
2023/10/14 08:03:48;;;;;;;3.92;3.22;;;;;;;;;;5057472;28;20035;-59
2023/10/14 08:06:18;;;;;;;7.88;3.15;;;;;;;;;;5056855;28;20510;-59
2023/10/14 08:08:50;;;;;;;3.88;2.83;;;;;;;;;;5056753;28;20033;-59
2023/10/14 08:11:16;;;;;;;6.25;3.05;;;;;;;;;;5057415;28;20128;-59
2023/10/14 08:13:43;;;;;;;5.05;2.40;;;;;;;;;;5056724;28;20037;-59
2023/10/14 08:16:11;;;;;;;5.20;1.98;;;;;;;;;;5056640;28;20025;-59
2023/10/14 08:18:40;;;;;;;4.45;1.73;;;;;;;;;;5057131;28;20037;-59
2023/10/14 08:21:09;;;;;;;3.30;1.88;;;;;;;;;;5057358;28;20057;-59
2023/10/14 08:23:35;;;;;;;2.70;1.83;;;;;;;;;;5056465;28;20024;-59
2023/10/14 08:26:03;;;;;;;4.28;1.85;;;;;;;;;;5056214;28;20028;-59
2023/10/14 08:28:29;;;;;;;2.92;1.70;;;;;;;;;;5056115;28;20344;-59
2023/10/14 08:30:58;;;;;;;2.35;1.45;;;;;;;;;;5056426;28;20040;-59
2023/10/14 08:33:25;;;;;;;5.05;1.75;;;;;;;;;;5056366;28;20033;-59
2023/10/14 08:35:52;;;;;;;2.65;1.48;;;;;;;;;;5057524;28;20045;-59
2023/10/14 08:38:22;;;;;;;2.00;1.17;;;;;;;;;;5056708;28;20091;-59
2023/10/14 08:40:51;;;;;;;4.63;1.48;;;;;;;;;;5056828;28;20037;-59
2023/10/14 08:43:21;;;;;;;3.08;1.85;;;;;;;;;;5056531;28;20029;-59
2023/10/14 08:45:48;;;;;;;3.58;1.70;;;;;;;;;;5056694;28;20039;-59
2023/10/14 08:48:18;;;;;;;4.75;1.85;;;;;;;;;;5055971;28;20120;-59
2023/10/14 08:50:45;;;;;;;7.30;1.90;;;;;;;;;;5056086;28;20036;-59
2023/10/14 08:53:12;;;;;;;5.05;2.53;;;;;;;;;;5055879;28;20466;-59
2023/10/14 08:55:39;;;;;;;4.50;2.88;;;;;;;;;;5055958;28;20033;-59
2023/10/14 08:58:06;;;;;;;5.53;2.95;;;;;;;;;;5055737;28;20017;-59
2023/10/14 09:00:38;;;;;;;4.07;3.05;;;;;;;;;;5056018;28;20487;-59
2023/10/14 09:03:09;;;;;;;5.78;3.80;;;;;;;;;;5055824;28;20025;-59
2023/10/14 09:05:39;;;;;;;4.43;3.03;;;;;;;;;;5056307;28;20021;-59
2023/10/14 09:08:06;;;;;;;7.70;3.20;;;;;;;;;;5056281;28;20371;-59
2023/10/14 09:10:33;;;;;;;4.07;2.40;;;;;;;;;;5056211;28;20405;-59
2023/10/14 09:13:00;;;;;;;5.25;2.42;;;;;;;;;;5056135;28;20094;-59
2023/10/14 09:15:29;;;;;;;3.38;2.70;;;;;;;;;;5055457;28;20540;-59
2023/10/14 09:17:56;;;;;;;4.72;2.67;;;;;;;;;;5055694;28;20025;-59
2023/10/14 09:20:30;;;;;;;5.95;2.92;;;;;;;;;;5055990;28;20359;-59
2023/10/14 09:23:11;;;;;;;4.63;2.78;;;;;;;;;;5055925;28;20021;-59
2023/10/14 09:25:41;;;;;;;3.67;2.25;;;;;;;;;;5055362;28;20029;-59
2023/10/14 09:28:08;;;;;;;1.92;0.98;;;;;;;;;;5055681;28;20033;-59
2023/10/14 09:30:35;;;;;;;2.00;0.90;;;;;;;;;;5055607;28;20036;-59
2023/10/14 09:33:04;;;;;;;1.55;0.82;;;;;;;;;;5055748;28;20025;-59
2023/10/14 09:35:30;;;;;;;1.30;0.50;;;;;;;;;;5055566;28;20099;-59
2023/10/14 09:37:59;;;;;;;0.88;0.50;;;;;;;;;;5055168;28;20463;-59
2023/10/14 09:40:25;;;;;;;3.05;0.70;;;;;;;;;;5055970;28;20065;-59
2023/10/14 09:42:53;;;;;;;1.42;0.60;;;;;;;;;;5054809;28;20025;-59
2023/10/14 09:45:20;;;;;;;1.45;0.40;;;;;;;;;;5055875;28;20296;-59
2023/10/14 09:47:46;;;;;;;1.33;0.40;;;;;;;;;;5055607;28;20021;-59
2023/10/14 09:50:16;;;;;;;1.38;0.90;;;;;;;;;;5055302;28;20352;-59
2023/10/14 09:52:42;;;;;;;1.30;0.75;;;;;;;;;;5055007;28;20060;-59
2023/10/14 09:55:14;;;;;;;1.27;0.68;;;;;;;;;;5054913;28;20089;-59
2023/10/14 09:57:44;;;;;;;1.33;0.70;;;;;;;;;;5055181;28;20056;-59
2023/10/14 10:00:11;;;;;;;1.92;0.73;;;;;;;;;;5055186;28;20033;-58
2023/10/14 10:02:38;;;;;;;1.52;0.85;;;;;;;;;;5054263;28;20044;-59
2023/10/14 10:05:06;;;;;;;1.30;0.63;;;;;;;;;;5054618;28;20031;-59
2023/10/14 10:07:53;;;;;;;1.13;0.60;;;;;;;;;;5054556;28;20033;-59
2023/10/14 10:10:22;;;;;;;0.88;0.50;;;;;;;;;;5055134;28;20416;-59
2023/10/14 10:12:55;;;;;;;1.50;0.50;;;;;;;;;;5054223;28;20466;-59
2023/10/14 10:15:21;;;;;;;0.82;0.40;;;;;;;;;;5055085;28;20021;-59
2023/10/14 10:18:22;;;;;;;1.40;0.57;;;;;;;;;;5054387;28;20021;-59
2023/10/14 10:20:56;;;;;;;0.88;0.45;;;;;;;;;;5050504;28;20048;-59
2023/10/14 10:23:27;;;;;;;0.88;0.30;;;;;;;;;;5054635;28;20029;-59
2023/10/14 10:25:53;;;;;;;0.93;0.50;;;;;;;;;;5054806;28;20352;-58
2023/10/14 10:28:28;;;;;;;0.73;0.30;;;;;;;;;;5054156;28;20021;-59
2023/10/14 10:30:58;;;;;;;0.47;0.25;;;;;;;;;;5054167;28;20029;-59
2023/10/14 10:33:45;;;;;;;1.17;0.60;;;;;;;;;;5054101;28;20021;-59
2023/10/14 10:36:12;;;;;;;1.27;0.47;;;;;;;;;;5054067;28;20044;-59
2023/10/14 10:38:38;;;;;;;1.20;0.50;;;;;;;;;;5053967;28;20032;-59
2023/10/14 10:41:23;;;;;;;0.88;0.40;;;;;;;;;;5054570;28;20108;-59
2023/10/14 10:43:50;;;;;;;1.25;0.60;;;;;;;;;;5054298;28;20033;-59
2023/10/14 10:46:28;;;;;;;1.02;0.40;;;;;;;;;;5053632;28;20024;-59
2023/10/14 10:48:54;;;;;;;1.63;0.57;;;;;;;;;;5053904;28;20120;-59
2023/10/14 10:51:21;;;;;;;0.98;0.47;;;;;;;;;;5053879;28;20442;-59
2023/10/14 10:53:48;;;;;;;0.85;0.43;;;;;;;;;;5054843;28;20112;-59
2023/10/14 10:56:14;;;;;;;0.75;0.38;;;;;;;;;;5054532;28;20021;-59
2023/10/14 10:58:41;;;;;;;1.42;0.60;;;;;;;;;;5053664;28;20091;-59
2023/10/14 11:01:08;;;;;;;0.98;0.45;;;;;;;;;;5053829;28;20430;-59
2023/10/14 11:03:34;;;;;;;1.25;0.57;;;;;;;;;;5053653;28;20029;-59
2023/10/14 11:06:00;;;;;;;1.48;0.50;;;;;;;;;;5054185;28;20447;-59
2023/10/14 11:08:26;;;;;;;0.80;0.40;;;;;;;;;;5053774;28;20436;-59
2023/10/14 11:10:53;;;;;;;1.08;0.70;;;;;;;;;;5054286;28;20032;-59
2023/10/14 11:13:19;;;;;;;0.80;0.40;;;;;;;;;;5053130;28;20538;-59
2023/10/14 11:15:48;;;;;;;1.23;0.47;;;;;;;;;;5054069;28;20152;-59
2023/10/14 11:18:15;;;;;;;0.60;0.20;;;;;;;;;;5053894;28;20032;-59
2023/10/14 11:20:43;;;;;;;0.90;0.40;;;;;;;;;;5054025;28;20029;-59
2023/10/14 11:23:09;;;;;;;0.98;0.45;;;;;;;;;;5053467;28;20128;-59
2023/10/14 11:25:42;;;;;;;0.60;0.30;;;;;;;;;;5053402;28;20021;-59
2023/10/14 11:28:14;;;;;;;2.33;0.60;;;;;;;;;;5053740;28;20024;-59
2023/10/14 11:30:42;;;;;;;0.32;0.22;;;;;;;;;;5053429;28;20017;-59
2023/10/14 11:33:09;;;;;;;1.27;0.55;;;;;;;;;;5053572;28;20496;-59
2023/10/14 11:35:37;;;;;;;1.33;0.50;;;;;;;;;;5053513;28;20060;-59
2023/10/14 11:38:04;;;;;;;0.40;0.22;;;;;;;;;;5052923;28;20478;-59
2023/10/14 11:40:36;;;;;;;1.85;0.70;;;;;;;;;;5054130;28;20064;-59
2023/10/14 11:43:03;;;;;;;0.30;0.20;;;;;;;;;;5053130;28;20025;-59
2023/10/14 11:45:30;;;;;;;0.40;0.20;;;;;;;;;;5053219;28;20021;-59
2023/10/14 11:47:56;;;;;;;0.52;0.20;;;;;;;;;;5053272;28;20017;-59
2023/10/14 11:50:22;;;;;;;2.38;0.60;;;;;;;;;;5053591;28;20063;-59
2023/10/14 11:52:52;;;;;;;1.30;0.40;;;;;;;;;;5053233;28;20075;-59
2023/10/14 11:55:19;;;;;;;0.20;0.20;;;;;;;;;;5053216;28;20059;-59
2023/10/14 11:57:46;;;;;;;0.70;0.32;;;;;;;;;;5052881;28;20467;-59
2023/10/14 12:00:16;;;;;;;0.70;0.30;;;;;;;;;;5053430;28;20037;-59
2023/10/14 12:02:42;;;;;;;;;;;;;;;;;;5053803;28;20032;-59
2023/10/14 12:05:08;;;;;;;1.20;0.50;;;;;;;;;;5053113;28;19905;-59
2023/10/14 12:07:34;;;;;;;0.73;0.25;;;;;;;;;;5053007;28;20082;-59
2023/10/14 12:10:01;;;;;;;0.43;0.20;;;;;;;;;;5053650;28;20025;-59
2023/10/14 12:12:27;;;;;;;0.52;0.20;;;;;;;;;;5053562;28;20029;-59
2023/10/14 12:14:53;;;;;;;0.82;0.35;;;;;;;;;;5052991;28;20021;-59
2023/10/14 12:17:19;;;;;;;0.50;0.20;;;;;;;;;;5052702;28;20033;-59
2023/10/14 12:19:45;;;;;;;2.67;0.30;;;;;;;;;;5053223;28;20075;-59
2023/10/14 12:22:11;;;;;;;0.30;0.10;;;;;;;;;;5052983;28;20049;-59
2023/10/14 12:24:37;;;;;;;0.20;0.20;;;;;;;;;;5052811;28;20028;-59
2023/10/14 12:27:03;;;;;;;0.47;0.20;;;;;;;;;;5055735;28;20019;-59
2023/10/14 12:29:32;;;;;;;0.38;0.20;;;;;;;;;;5056509;28;20376;-59
2023/10/14 12:31:59;;;;;;;1.55;0.28;;;;;;;;;;5056938;28;20047;-59
2023/10/14 12:34:27;;;;;;;0.77;0.30;;;;;;;;;;5056550;28;20387;-59
2023/10/14 12:36:53;;;;;;;1.25;0.60;;;;;;;;;;5056365;28;20048;-59
2023/10/14 12:39:21;;;;;;;0.63;0.20;;;;;;;;;;5056192;28;20459;-59
2023/10/14 12:41:49;;;;;;;0.65;0.28;;;;;;;;;;5055859;28;20383;-59
2023/10/14 12:44:15;;;;;;;0.52;0.30;;;;;;;;;;5057029;28;20086;-59
2023/10/14 12:46:43;;;;;;;3.08;0.20;;;;;;;;;;5056965;28;20029;-59
2023/10/14 12:49:10;;;;;;;0.40;0.20;;;;;;;;;;5056927;28;20067;-59
2023/10/14 12:51:43;;;;;;;0.35;0.20;;;;;;;;;;5056112;28;20505;-59
2023/10/14 12:54:18;;;;;;;0.70;0.40;;;;;;;;;;5056279;28;20102;-59
2023/10/14 12:56:45;;;;;;;0.43;0.22;;;;;;;;;;5056395;28;20017;-59
2023/10/14 12:59:14;;;;;;;5.40;0.40;;;;;;;;;;5056424;28;20056;-59
2023/10/14 13:01:46;;;;;;;4.43;0.30;;;;;;;;;;5055770;28;20135;-59
2023/10/14 13:04:16;;;;;;;0.85;0.43;;;;;;;;;;5056742;28;20056;-59
2023/10/14 13:06:44;;;;;;;0.45;0.25;;;;;;;;;;5056662;28;20016;-59
2023/10/14 13:09:11;;;;;;;0.70;0.30;;;;;;;;;;5055286;28;20379;-59
2023/10/14 13:11:43;;;;;;;0.60;0.20;;;;;;;;;;5056077;28;20021;-59
2023/10/14 13:14:09;;;;;;;0.82;0.32;;;;;;;;;;5055846;28;20474;-59
2023/10/14 13:16:35;;;;;;;1.75;0.47;;;;;;;;;;5055755;28;20020;-59
2023/10/14 13:19:01;;;;;;;0.85;0.45;;;;;;;;;;5055505;28;20112;-59
2023/10/14 13:21:30;;;;;;;0.65;0.30;;;;;;;;;;5055775;28;20036;-59
2023/10/14 13:23:56;;;;;;;0.70;0.30;;;;;;;;;;5055264;28;20021;-59
2023/10/14 13:26:22;;;;;;;0.47;0.20;;;;;;;;;;5055170;28;20435;-59
2023/10/14 13:28:52;;;;;;;0.70;0.43;;;;;;;;;;5055887;28;20053;-59
2023/10/14 13:31:20;;;;;;;3.35;0.63;;;;;;;;;;5055974;28;20025;-59
2023/10/14 13:33:49;;;;;;;0.95;0.40;;;;;;;;;;5054887;28;20027;-59
2023/10/14 13:36:15;;;;;;;0.82;0.40;;;;;;;;;;5055359;28;20068;-59
2023/10/14 13:38:41;;;;;;;0.98;0.40;;;;;;;;;;5053527;28;20029;-59
2023/10/14 13:41:15;;;;;;;1.30;0.50;;;;;;;;;;5054718;28;20044;-59
2023/10/14 13:43:41;;;;;;;1.15;0.55;;;;;;;;;;5055686;28;20032;-59
2023/10/14 13:46:07;;;;;;;2.28;0.68;;;;;;;;;;5055578;28;20025;-59
2023/10/14 13:48:36;;;;;;;1.20;0.32;;;;;;;;;;5054850;28;20036;-59
2023/10/14 13:51:03;;;;;;;0.50;0.30;;;;;;;;;;5055535;28;20025;-59
2023/10/14 13:53:34;;;;;;;0.60;0.35;;;;;;;;;;5054519;28;20474;-59
2023/10/14 13:56:01;;;;;;;1.85;0.57;;;;;;;;;;5054741;28;20025;-59
2023/10/14 13:58:28;;;;;;;0.98;0.40;;;;;;;;;;5055087;28;20021;-59
2023/10/14 14:00:56;;;;;;;1.30;0.68;;;;;;;;;;5054797;28;20039;-59
2023/10/14 14:03:28;;;;;;;1.35;0.85;;;;;;;;;;5055097;28;20044;-59
2023/10/14 14:05:54;;;;;;;2.08;0.70;;;;;;;;;;5054484;28;20028;-59
2023/10/14 14:08:26;;;;;;;2.92;0.85;;;;;;;;;;5054039;28;20455;-58
2023/10/14 14:10:56;;;;;;;2.10;0.88;;;;;;;;;;5054838;28;20366;-59
2023/10/14 14:13:24;;;;;;;1.95;0.93;;;;;;;;;;5054553;28;20073;-58
2023/10/14 14:15:53;;;;;;;1.45;0.90;;;;;;;;;;5054231;28;20109;-59
2023/10/14 14:18:19;;;;;;;2.13;0.77;;;;;;;;;;5054352;28;20051;-59
2023/10/14 14:20:47;;;;;;;1.88;0.63;;;;;;;;;;5054646;28;20029;-61
2023/10/14 14:23:15;;;;;;;0.95;0.50;;;;;;;;;;5053935;28;20441;-61
2023/10/14 14:25:41;;;;;;;2.13;1.00;;;;;;;;;;5054176;28;20033;-59
2023/10/14 14:28:09;;;;;;;3.67;1.10;;;;;;;;;;5054517;28;20025;-58
2023/10/14 14:30:35;;;;;;;3.67;1.00;;;;;;;;;;5054450;28;20044;-58
2023/10/14 14:33:01;;;;;;;1.52;0.85;;;;;;;;;;5053597;28;20032;-58
2023/10/14 14:35:31;;;;;;;2.85;1.55;;;;;;;;;;5054014;28;20084;-59
2023/10/14 14:37:57;;;;;;;3.85;1.08;;;;;;;;;;5053852;28;20114;-58
2023/10/14 14:40:24;;;;;;;2.95;1.48;;;;;;;;;;5054270;28;20463;-58
2023/10/14 14:42:51;;;;;;;2.40;0.98;;;;;;;;;;5053739;28;20146;-59
2023/10/14 14:45:23;;;;;;;2.58;1.25;;;;;;;;;;5053704;28;20477;-58
2023/10/14 14:47:53;;;;;;;3.88;1.55;;;;;;;;;;5053894;28;20513;-58
2023/10/14 14:50:20;;;;;;;2.65;1.70;;;;;;;;;;5054232;28;20028;-58
2023/10/14 14:52:47;;;;;;;2.63;1.05;;;;;;;;;;5053529;28;20033;-58
2023/10/14 14:55:17;;;;;;;2.55;1.58;;;;;;;;;;5053731;28;20082;-58
2023/10/14 14:57:54;;;;;;;4.28;1.52;;;;;;;;;;5053859;28;20017;-58
2023/10/14 15:00:27;;;;;;;2.22;1.02;;;;;;;;;;5053706;28;20041;-58
2023/10/14 15:02:55;;;;;;;2.35;1.40;;;;;;;;;;5053675;28;20028;-58
2023/10/14 15:05:21;;;;;;;2.65;1.13;;;;;;;;;;5053352;28;20110;-58
2023/10/14 15:07:48;;;;;;;3.78;1.85;;;;;;;;;;5053278;28;20025;-58